sensor_id;sensor_type;location;lat;lon;timestamp;P1;durP1;ratioP1;P2;durP2;ratioP2
16308;SDS011;8263;48.880;9.276;2023-02-28T00:02:21;153.20;;;141.50;;
16308;SDS011;8263;48.880;9.276;2023-02-28T00:04:47;153.32;;;141.60;;
16308;SDS011;8263;48.880;9.276;2023-02-28T00:07:27;152.45;;;140.82;;
16308;SDS011;8263;48.880;9.276;2023-02-28T00:09:54;151.52;;;139.93;;
16308;SDS011;8263;48.880;9.276;2023-02-28T00:12:20;153.38;;;141.68;;
16308;SDS011;8263;48.880;9.276;2023-02-28T00:14:47;153.20;;;141.50;;
16308;SDS011;8263;48.880;9.276;2023-02-28T00:17:13;153.93;;;142.13;;
16308;SDS011;8263;48.880;9.276;2023-02-28T00:19:41;152.95;;;141.25;;
16308;SDS011;8263;48.880;9.276;2023-02-28T00:22:08;152.30;;;140.68;;
16308;SDS011;8263;48.880;9.276;2023-02-28T00:24:35;152.98;;;141.27;;
16308;SDS011;8263;48.880;9.276;2023-02-28T00:27:02;153.80;;;142.00;;
16308;SDS011;8263;48.880;9.276;2023-02-28T00:29:28;155.07;;;143.07;;
16308;SDS011;8263;48.880;9.276;2023-02-28T00:31:55;153.07;;;141.38;;
16308;SDS011;8263;48.880;9.276;2023-02-28T00:34:21;152.90;;;141.20;;
16308;SDS011;8263;48.880;9.276;2023-02-28T00:36:47;154.57;;;142.68;;
16308;SDS011;8263;48.880;9.276;2023-02-28T00:39:15;153.73;;;141.93;;
16308;SDS011;8263;48.880;9.276;2023-02-28T00:41:42;152.30;;;140.55;;
16308;SDS011;8263;48.880;9.276;2023-02-28T00:44:09;154.50;;;142.60;;
16308;SDS011;8263;48.880;9.276;2023-02-28T00:46:35;153.20;;;141.50;;
16308;SDS011;8263;48.880;9.276;2023-02-28T00:49:02;154.35;;;142.48;;
16308;SDS011;8263;48.880;9.276;2023-02-28T00:51:28;153.98;;;142.18;;
16308;SDS011;8263;48.880;9.276;2023-02-28T00:53:55;153.45;;;141.70;;
16308;SDS011;8263;48.880;9.276;2023-02-28T00:56:21;154.80;;;142.90;;
16308;SDS011;8263;48.880;9.276;2023-02-28T00:58:49;154.77;;;142.88;;
16308;SDS011;8263;48.880;9.276;2023-02-28T01:01:15;154.07;;;142.25;;
16308;SDS011;8263;48.880;9.276;2023-02-28T01:03:42;153.20;;;141.45;;
16308;SDS011;8263;48.880;9.276;2023-02-28T01:06:08;154.13;;;142.27;;
16308;SDS011;8263;48.880;9.276;2023-02-28T01:08:35;153.02;;;141.32;;
16308;SDS011;8263;48.880;9.276;2023-02-28T01:11:06;155.10;;;143.18;;
16308;SDS011;8263;48.880;9.276;2023-02-28T01:13:33;155.45;;;143.45;;
16308;SDS011;8263;48.880;9.276;2023-02-28T01:16:01;154.52;;;142.63;;
16308;SDS011;8263;48.880;9.276;2023-02-28T01:18:27;154.18;;;142.32;;
16308;SDS011;8263;48.880;9.276;2023-02-28T01:20:53;153.48;;;141.70;;
16308;SDS011;8263;48.880;9.276;2023-02-28T01:23:20;154.85;;;142.93;;
16308;SDS011;8263;48.880;9.276;2023-02-28T01:25:48;154.20;;;142.35;;
16308;SDS011;8263;48.880;9.276;2023-02-28T01:28:14;153.65;;;141.85;;
16308;SDS011;8263;48.880;9.276;2023-02-28T01:30:41;155.60;;;143.60;;
16308;SDS011;8263;48.880;9.276;2023-02-28T01:33:09;153.05;;;141.30;;
16308;SDS011;8263;48.880;9.276;2023-02-28T01:35:35;152.73;;;140.98;;
16308;SDS011;8263;48.880;9.276;2023-02-28T01:38:02;153.52;;;141.75;;
16308;SDS011;8263;48.880;9.276;2023-02-28T01:40:29;155.20;;;143.23;;
16308;SDS011;8263;48.880;9.276;2023-02-28T01:42:56;154.40;;;142.50;;
16308;SDS011;8263;48.880;9.276;2023-02-28T01:45:23;153.70;;;141.90;;
16308;SDS011;8263;48.880;9.276;2023-02-28T01:47:52;155.02;;;143.05;;
16308;SDS011;8263;48.880;9.276;2023-02-28T01:50:21;155.73;;;143.65;;
16308;SDS011;8263;48.880;9.276;2023-02-28T01:52:48;153.57;;;141.77;;
16308;SDS011;8263;48.880;9.276;2023-02-28T01:55:15;156.30;;;144.20;;
16308;SDS011;8263;48.880;9.276;2023-02-28T01:57:43;155.07;;;143.07;;
16308;SDS011;8263;48.880;9.276;2023-02-28T02:00:12;154.65;;;142.70;;
16308;SDS011;8263;48.880;9.276;2023-02-28T02:02:40;155.43;;;143.43;;
16308;SDS011;8263;48.880;9.276;2023-02-28T02:05:08;155.30;;;143.25;;
16308;SDS011;8263;48.880;9.276;2023-02-28T02:07:37;157.00;;;144.52;;
16308;SDS011;8263;48.880;9.276;2023-02-28T02:10:05;154.75;;;142.77;;
16308;SDS011;8263;48.880;9.276;2023-02-28T02:12:49;156.43;;;144.32;;
16308;SDS011;8263;48.880;9.276;2023-02-28T02:15:19;155.57;;;143.55;;
16308;SDS011;8263;48.880;9.276;2023-02-28T02:17:49;156.25;;;144.05;;
16308;SDS011;8263;48.880;9.276;2023-02-28T02:20:32;155.45;;;143.40;;
16308;SDS011;8263;48.880;9.276;2023-02-28T02:25:50;156.90;;;144.60;;
16308;SDS011;8263;48.880;9.276;2023-02-28T02:28:27;156.98;;;144.77;;
16308;SDS011;8263;48.880;9.276;2023-02-28T02:36:22;156.57;;;144.43;;
16308;SDS011;8263;48.880;9.276;2023-02-28T02:38:50;156.23;;;144.13;;
16308;SDS011;8263;48.880;9.276;2023-02-28T02:41:19;156.40;;;144.27;;
16308;SDS011;8263;48.880;9.276;2023-02-28T02:43:48;156.70;;;144.50;;
16308;SDS011;8263;48.880;9.276;2023-02-28T02:46:17;156.20;;;144.10;;
16308;SDS011;8263;48.880;9.276;2023-02-28T02:48:45;156.38;;;144.23;;
16308;SDS011;8263;48.880;9.276;2023-02-28T02:51:13;157.68;;;145.40;;
16308;SDS011;8263;48.880;9.276;2023-02-28T02:53:43;157.68;;;145.00;;
16308;SDS011;8263;48.880;9.276;2023-02-28T02:56:10;155.75;;;143.63;;
16308;SDS011;8263;48.880;9.276;2023-02-28T02:58:38;157.32;;;144.82;;
16308;SDS011;8263;48.880;9.276;2023-02-28T03:01:07;156.48;;;144.30;;
16308;SDS011;8263;48.880;9.276;2023-02-28T03:03:35;155.93;;;143.88;;
16308;SDS011;8263;48.880;9.276;2023-02-28T03:06:02;156.55;;;144.38;;
16308;SDS011;8263;48.880;9.276;2023-02-28T03:08:29;155.68;;;143.65;;
16308;SDS011;8263;48.880;9.276;2023-02-28T03:11:01;156.15;;;144.05;;
16308;SDS011;8263;48.880;9.276;2023-02-28T03:19:10;153.80;;;141.95;;
16308;SDS011;8263;48.880;9.276;2023-02-28T03:21:40;156.75;;;144.55;;
16308;SDS011;8263;48.880;9.276;2023-02-28T03:24:10;156.63;;;144.25;;
16308;SDS011;8263;48.880;9.276;2023-02-28T03:26:40;156.35;;;144.25;;
16308;SDS011;8263;48.880;9.276;2023-02-28T03:29:10;156.82;;;144.63;;
16308;SDS011;8263;48.880;9.276;2023-02-28T03:31:38;154.80;;;142.60;;
16308;SDS011;8263;48.880;9.276;2023-02-28T03:34:06;156.27;;;143.98;;
16308;SDS011;8263;48.880;9.276;2023-02-28T03:36:35;155.38;;;143.38;;
16308;SDS011;8263;48.880;9.276;2023-02-28T03:39:08;155.98;;;143.82;;
16308;SDS011;8263;48.880;9.276;2023-02-28T03:41:36;156.23;;;144.10;;
16308;SDS011;8263;48.880;9.276;2023-02-28T03:44:07;157.00;;;144.80;;
16308;SDS011;8263;48.880;9.276;2023-02-28T03:46:36;156.77;;;144.38;;
16308;SDS011;8263;48.880;9.276;2023-02-28T03:49:06;155.93;;;143.77;;
16308;SDS011;8263;48.880;9.276;2023-02-28T03:51:34;155.88;;;143.80;;
16308;SDS011;8263;48.880;9.276;2023-02-28T03:54:03;156.20;;;144.10;;
16308;SDS011;8263;48.880;9.276;2023-02-28T03:56:32;156.82;;;144.68;;
16308;SDS011;8263;48.880;9.276;2023-02-28T03:59:00;156.45;;;144.32;;
16308;SDS011;8263;48.880;9.276;2023-02-28T04:01:31;157.57;;;145.18;;
16308;SDS011;8263;48.880;9.276;2023-02-28T04:04:00;155.25;;;143.25;;
16308;SDS011;8263;48.880;9.276;2023-02-28T04:06:27;156.05;;;143.98;;
16308;SDS011;8263;48.880;9.276;2023-02-28T04:08:53;156.10;;;144.00;;
16308;SDS011;8263;48.880;9.276;2023-02-28T04:11:21;155.75;;;143.68;;
16308;SDS011;8263;48.880;9.276;2023-02-28T04:13:48;157.38;;;145.07;;
16308;SDS011;8263;48.880;9.276;2023-02-28T04:16:14;156.48;;;144.35;;
16308;SDS011;8263;48.880;9.276;2023-02-28T04:18:42;155.75;;;143.73;;
16308;SDS011;8263;48.880;9.276;2023-02-28T04:21:09;157.55;;;145.18;;
16308;SDS011;8263;48.880;9.276;2023-02-28T04:23:36;156.95;;;144.65;;
16308;SDS011;8263;48.880;9.276;2023-02-28T04:26:02;157.20;;;144.98;;
16308;SDS011;8263;48.880;9.276;2023-02-28T04:28:30;156.00;;;143.93;;
16308;SDS011;8263;48.880;9.276;2023-02-28T04:30:57;156.68;;;144.50;;
16308;SDS011;8263;48.880;9.276;2023-02-28T04:33:24;155.77;;;143.70;;
16308;SDS011;8263;48.880;9.276;2023-02-28T04:35:59;156.73;;;144.55;;
16308;SDS011;8263;48.880;9.276;2023-02-28T04:38:26;157.02;;;144.77;;
16308;SDS011;8263;48.880;9.276;2023-02-28T04:40:52;155.82;;;143.73;;
16308;SDS011;8263;48.880;9.276;2023-02-28T04:43:19;156.13;;;143.80;;
16308;SDS011;8263;48.880;9.276;2023-02-28T04:45:45;156.15;;;144.02;;
16308;SDS011;8263;48.880;9.276;2023-02-28T04:48:11;154.70;;;142.73;;
16308;SDS011;8263;48.880;9.276;2023-02-28T04:50:38;154.90;;;142.95;;
16308;SDS011;8263;48.880;9.276;2023-02-28T04:53:06;157.30;;;144.80;;
16308;SDS011;8263;48.880;9.276;2023-02-28T04:55:32;155.20;;;143.15;;
16308;SDS011;8263;48.880;9.276;2023-02-28T04:57:59;155.77;;;143.63;;
16308;SDS011;8263;48.880;9.276;2023-02-28T05:00:26;156.50;;;144.40;;
16308;SDS011;8263;48.880;9.276;2023-02-28T05:02:52;152.90;;;141.20;;
16308;SDS011;8263;48.880;9.276;2023-02-28T05:05:19;155.07;;;143.10;;
16308;SDS011;8263;48.880;9.276;2023-02-28T05:07:45;155.85;;;143.65;;
16308;SDS011;8263;48.880;9.276;2023-02-28T05:10:13;155.07;;;143.02;;
16308;SDS011;8263;48.880;9.276;2023-02-28T05:12:39;155.95;;;143.88;;
16308;SDS011;8263;48.880;9.276;2023-02-28T05:15:07;154.18;;;142.27;;
16308;SDS011;8263;48.880;9.276;2023-02-28T05:17:34;157.07;;;144.88;;
16308;SDS011;8263;48.880;9.276;2023-02-28T05:20:01;155.25;;;143.25;;
16308;SDS011;8263;48.880;9.276;2023-02-28T05:22:27;155.05;;;143.10;;
16308;SDS011;8263;48.880;9.276;2023-02-28T05:24:54;153.57;;;141.77;;
16308;SDS011;8263;48.880;9.276;2023-02-28T05:27:22;153.95;;;142.13;;
16308;SDS011;8263;48.880;9.276;2023-02-28T05:29:48;154.27;;;142.38;;
16308;SDS011;8263;48.880;9.276;2023-02-28T05:32:15;154.80;;;142.88;;
16308;SDS011;8263;48.880;9.276;2023-02-28T05:34:41;155.13;;;143.15;;
16308;SDS011;8263;48.880;9.276;2023-02-28T05:37:10;156.25;;;144.13;;
16308;SDS011;8263;48.880;9.276;2023-02-28T05:39:37;154.48;;;142.57;;
16308;SDS011;8263;48.880;9.276;2023-02-28T05:42:04;155.13;;;143.13;;
16308;SDS011;8263;48.880;9.276;2023-02-28T05:44:32;154.82;;;142.93;;
16308;SDS011;8263;48.880;9.276;2023-02-28T05:46:59;155.30;;;143.32;;
16308;SDS011;8263;48.880;9.276;2023-02-28T05:49:25;155.60;;;143.52;;
16308;SDS011;8263;48.880;9.276;2023-02-28T05:51:52;155.05;;;143.13;;
16308;SDS011;8263;48.880;9.276;2023-02-28T05:54:18;155.38;;;143.38;;
16308;SDS011;8263;48.880;9.276;2023-02-28T05:56:45;155.88;;;143.82;;
16308;SDS011;8263;48.880;9.276;2023-02-28T05:59:11;154.15;;;142.23;;
16308;SDS011;8263;48.880;9.276;2023-02-28T06:01:40;154.82;;;142.50;;
16308;SDS011;8263;48.880;9.276;2023-02-28T06:04:08;155.50;;;143.00;;
16308;SDS011;8263;48.880;9.276;2023-02-28T06:06:34;154.57;;;142.68;;
16308;SDS011;8263;48.880;9.276;2023-02-28T06:09:02;155.10;;;143.10;;
16308;SDS011;8263;48.880;9.276;2023-02-28T06:11:28;155.73;;;143.73;;
16308;SDS011;8263;48.880;9.276;2023-02-28T06:13:55;154.00;;;141.63;;
16308;SDS011;8263;48.880;9.276;2023-02-28T06:16:22;155.68;;;143.68;;
16308;SDS011;8263;48.880;9.276;2023-02-28T06:18:49;151.43;;;139.73;;
16308;SDS011;8263;48.880;9.276;2023-02-28T06:21:17;155.48;;;143.30;;
16308;SDS011;8263;48.880;9.276;2023-02-28T06:23:44;155.27;;;143.30;;
16308;SDS011;8263;48.880;9.276;2023-02-28T06:26:11;156.95;;;144.70;;
16308;SDS011;8263;48.880;9.276;2023-02-28T06:28:37;154.93;;;142.80;;
16308;SDS011;8263;48.880;9.276;2023-02-28T06:31:07;154.55;;;142.60;;
16308;SDS011;8263;48.880;9.276;2023-02-28T06:33:33;154.48;;;142.05;;
16308;SDS011;8263;48.880;9.276;2023-02-28T06:36:02;153.13;;;141.43;;
16308;SDS011;8263;48.880;9.276;2023-02-28T06:38:28;154.23;;;142.23;;
16308;SDS011;8263;48.880;9.276;2023-02-28T06:40:55;153.88;;;142.02;;
16308;SDS011;8263;48.880;9.276;2023-02-28T06:43:21;154.23;;;142.23;;
16308;SDS011;8263;48.880;9.276;2023-02-28T06:45:48;154.07;;;142.25;;
16308;SDS011;8263;48.880;9.276;2023-02-28T06:48:15;155.00;;;143.07;;
16308;SDS011;8263;48.880;9.276;2023-02-28T06:50:41;153.95;;;142.13;;
16308;SDS011;8263;48.880;9.276;2023-02-28T06:53:09;155.13;;;143.18;;
16308;SDS011;8263;48.880;9.276;2023-02-28T06:55:37;154.35;;;142.45;;
16308;SDS011;8263;48.880;9.276;2023-02-28T06:58:03;153.00;;;141.20;;
16308;SDS011;8263;48.880;9.276;2023-02-28T07:00:39;155.68;;;143.35;;
16308;SDS011;8263;48.880;9.276;2023-02-28T07:03:06;154.23;;;142.32;;
16308;SDS011;8263;48.880;9.276;2023-02-28T07:05:34;154.90;;;142.95;;
16308;SDS011;8263;48.880;9.276;2023-02-28T07:08:00;155.35;;;143.23;;
16308;SDS011;8263;48.880;9.276;2023-02-28T07:10:28;155.05;;;143.05;;
16308;SDS011;8263;48.880;9.276;2023-02-28T07:12:54;156.52;;;144.02;;
16308;SDS011;8263;48.880;9.276;2023-02-28T07:15:21;156.45;;;144.25;;
16308;SDS011;8263;48.880;9.276;2023-02-28T07:17:47;156.40;;;144.20;;
16308;SDS011;8263;48.880;9.276;2023-02-28T07:20:13;154.32;;;142.43;;
16308;SDS011;8263;48.880;9.276;2023-02-28T07:22:40;155.25;;;143.25;;
16308;SDS011;8263;48.880;9.276;2023-02-28T07:25:08;154.65;;;142.65;;
16308;SDS011;8263;48.880;9.276;2023-02-28T07:27:36;155.05;;;143.05;;
16308;SDS011;8263;48.880;9.276;2023-02-28T07:30:03;154.18;;;142.27;;
16308;SDS011;8263;48.880;9.276;2023-02-28T07:32:30;155.07;;;143.07;;
16308;SDS011;8263;48.880;9.276;2023-02-28T07:34:56;154.38;;;142.50;;
16308;SDS011;8263;48.880;9.276;2023-02-28T07:37:22;154.98;;;142.77;;
16308;SDS011;8263;48.880;9.276;2023-02-28T07:39:49;154.85;;;142.88;;
16308;SDS011;8263;48.880;9.276;2023-02-28T07:42:16;154.20;;;142.23;;
16308;SDS011;8263;48.880;9.276;2023-02-28T07:44:44;155.13;;;143.13;;
16308;SDS011;8263;48.880;9.276;2023-02-28T07:47:11;155.27;;;143.30;;
16308;SDS011;8263;48.880;9.276;2023-02-28T07:49:37;154.85;;;142.93;;
16308;SDS011;8263;48.880;9.276;2023-02-28T07:52:04;154.60;;;142.63;;
16308;SDS011;8263;48.880;9.276;2023-02-28T07:54:32;155.38;;;143.35;;
16308;SDS011;8263;48.880;9.276;2023-02-28T07:56:58;154.85;;;142.75;;
16308;SDS011;8263;48.880;9.276;2023-02-28T07:59:25;156.18;;;143.98;;
16308;SDS011;8263;48.880;9.276;2023-02-28T08:01:53;155.70;;;143.60;;
16308;SDS011;8263;48.880;9.276;2023-02-28T08:04:19;154.77;;;142.82;;
16308;SDS011;8263;48.880;9.276;2023-02-28T08:06:45;154.95;;;142.95;;
16308;SDS011;8263;48.880;9.276;2023-02-28T08:09:12;153.95;;;142.15;;
16308;SDS011;8263;48.880;9.276;2023-02-28T08:11:39;155.52;;;143.45;;
16308;SDS011;8263;48.880;9.276;2023-02-28T08:14:05;155.18;;;143.23;;
16308;SDS011;8263;48.880;9.276;2023-02-28T08:16:32;155.32;;;143.32;;
16308;SDS011;8263;48.880;9.276;2023-02-28T08:18:59;154.10;;;141.90;;
16308;SDS011;8263;48.880;9.276;2023-02-28T08:21:26;154.25;;;142.35;;
16308;SDS011;8263;48.880;9.276;2023-02-28T08:23:52;156.38;;;144.18;;
16308;SDS011;8263;48.880;9.276;2023-02-28T08:26:19;156.30;;;144.05;;
16308;SDS011;8263;48.880;9.276;2023-02-28T08:28:45;153.85;;;142.05;;
16308;SDS011;8263;48.880;9.276;2023-02-28T08:31:13;156.60;;;144.20;;
16308;SDS011;8263;48.880;9.276;2023-02-28T08:33:40;155.10;;;142.75;;
16308;SDS011;8263;48.880;9.276;2023-02-28T08:36:08;154.80;;;142.70;;
16308;SDS011;8263;48.880;9.276;2023-02-28T08:38:35;154.98;;;142.55;;
16308;SDS011;8263;48.880;9.276;2023-02-28T08:41:03;153.75;;;142.00;;
16308;SDS011;8263;48.880;9.276;2023-02-28T08:43:31;152.70;;;140.82;;
16308;SDS011;8263;48.880;9.276;2023-02-28T08:45:57;153.50;;;141.48;;
16308;SDS011;8263;48.880;9.276;2023-02-28T08:48:23;153.20;;;141.48;;
16308;SDS011;8263;48.880;9.276;2023-02-28T08:50:56;154.90;;;143.00;;
16308;SDS011;8263;48.880;9.276;2023-02-28T08:53:25;155.88;;;143.82;;
16308;SDS011;8263;48.880;9.276;2023-02-28T08:55:57;154.57;;;142.38;;
16308;SDS011;8263;48.880;9.276;2023-02-28T08:58:24;153.52;;;141.73;;
16308;SDS011;8263;48.880;9.276;2023-02-28T09:00:51;153.95;;;141.88;;
16308;SDS011;8263;48.880;9.276;2023-02-28T09:03:17;154.68;;;142.45;;
16308;SDS011;8263;48.880;9.276;2023-02-28T09:05:51;153.43;;;141.60;;
16308;SDS011;8263;48.880;9.276;2023-02-28T09:08:17;153.65;;;141.90;;
16308;SDS011;8263;48.880;9.276;2023-02-28T09:10:45;155.93;;;143.48;;
16308;SDS011;8263;48.880;9.276;2023-02-28T09:13:12;154.65;;;142.55;;
16308;SDS011;8263;48.880;9.276;2023-02-28T09:15:38;154.27;;;142.10;;
16308;SDS011;8263;48.880;9.276;2023-02-28T09:18:05;153.43;;;141.70;;
16308;SDS011;8263;48.880;9.276;2023-02-28T09:20:31;152.20;;;140.63;;
16308;SDS011;8263;48.880;9.276;2023-02-28T09:22:58;152.57;;;140.98;;
16308;SDS011;8263;48.880;9.276;2023-02-28T09:25:24;154.13;;;142.27;;
16308;SDS011;8263;48.880;9.276;2023-02-28T09:27:52;154.00;;;142.20;;
16308;SDS011;8263;48.880;9.276;2023-02-28T09:30:19;154.25;;;142.38;;
16308;SDS011;8263;48.880;9.276;2023-02-28T09:32:45;153.77;;;142.00;;
16308;SDS011;8263;48.880;9.276;2023-02-28T09:35:17;151.77;;;140.20;;
16308;SDS011;8263;48.880;9.276;2023-02-28T09:37:43;153.45;;;141.68;;
16308;SDS011;8263;48.880;9.276;2023-02-28T09:40:12;151.50;;;139.98;;
16308;SDS011;8263;48.880;9.276;2023-02-28T09:42:39;152.68;;;140.98;;
16308;SDS011;8263;48.880;9.276;2023-02-28T09:45:11;152.90;;;141.20;;
16308;SDS011;8263;48.880;9.276;2023-02-28T09:47:42;152.77;;;141.15;;
16308;SDS011;8263;48.880;9.276;2023-02-28T09:50:12;151.90;;;140.20;;
16308;SDS011;8263;48.880;9.276;2023-02-28T09:52:42;153.32;;;141.55;;
16308;SDS011;8263;48.880;9.276;2023-02-28T09:55:18;152.40;;;140.73;;
16308;SDS011;8263;48.880;9.276;2023-02-28T09:57:44;152.20;;;140.60;;
16308;SDS011;8263;48.880;9.276;2023-02-28T10:00:15;151.82;;;140.30;;
16308;SDS011;8263;48.880;9.276;2023-02-28T10:02:55;150.77;;;139.38;;
16308;SDS011;8263;48.880;9.276;2023-02-28T10:05:25;152.10;;;140.52;;
16308;SDS011;8263;48.880;9.276;2023-02-28T10:07:56;151.98;;;140.45;;
16308;SDS011;8263;48.880;9.276;2023-02-28T10:10:27;150.80;;;139.40;;
16308;SDS011;8263;48.880;9.276;2023-02-28T10:12:55;152.75;;;140.95;;
16308;SDS011;8263;48.880;9.276;2023-02-28T10:15:24;151.02;;;139.57;;
16308;SDS011;8263;48.880;9.276;2023-02-28T10:17:53;150.00;;;138.68;;
16308;SDS011;8263;48.880;9.276;2023-02-28T10:20:21;149.52;;;138.25;;
16308;SDS011;8263;48.880;9.276;2023-02-28T10:22:56;149.93;;;138.63;;
16308;SDS011;8263;48.880;9.276;2023-02-28T10:25:24;150.48;;;139.10;;
16308;SDS011;8263;48.880;9.276;2023-02-28T10:27:52;152.13;;;140.48;;
16308;SDS011;8263;48.880;9.276;2023-02-28T10:30:19;151.30;;;139.18;;
16308;SDS011;8263;48.880;9.276;2023-02-28T10:32:49;149.98;;;138.65;;
16308;SDS011;8263;48.880;9.276;2023-02-28T10:35:19;149.10;;;137.82;;
16308;SDS011;8263;48.880;9.276;2023-02-28T10:37:46;148.43;;;137.13;;
16308;SDS011;8263;48.880;9.276;2023-02-28T10:40:25;148.48;;;137.30;;
16308;SDS011;8263;48.880;9.276;2023-02-28T10:42:54;148.23;;;137.13;;
16308;SDS011;8263;48.880;9.276;2023-02-28T10:45:21;147.85;;;136.77;;
16308;SDS011;8263;48.880;9.276;2023-02-28T10:47:51;148.75;;;137.35;;
16308;SDS011;8263;48.880;9.276;2023-02-28T10:50:29;148.90;;;137.60;;
16308;SDS011;8263;48.880;9.276;2023-02-28T10:53:04;148.70;;;137.50;;
16308;SDS011;8263;48.880;9.276;2023-02-28T10:55:33;147.32;;;136.32;;
16308;SDS011;8263;48.880;9.276;2023-02-28T10:58:00;147.27;;;136.20;;
16308;SDS011;8263;48.880;9.276;2023-02-28T11:00:31;148.65;;;137.45;;
16308;SDS011;8263;48.880;9.276;2023-02-28T11:03:00;146.65;;;135.75;;
16308;SDS011;8263;48.880;9.276;2023-02-28T11:05:27;147.05;;;136.02;;
16308;SDS011;8263;48.880;9.276;2023-02-28T11:07:54;146.07;;;135.20;;
16308;SDS011;8263;48.880;9.276;2023-02-28T11:10:23;148.40;;;136.73;;
16308;SDS011;8263;48.880;9.276;2023-02-28T11:12:53;147.30;;;136.10;;
16308;SDS011;8263;48.880;9.276;2023-02-28T11:15:21;146.40;;;135.45;;
16308;SDS011;8263;48.880;9.276;2023-02-28T11:17:53;145.43;;;134.57;;
16308;SDS011;8263;48.880;9.276;2023-02-28T11:20:21;145.13;;;134.35;;
16308;SDS011;8263;48.880;9.276;2023-02-28T11:22:49;145.25;;;134.45;;
16308;SDS011;8263;48.880;9.276;2023-02-28T11:25:19;146.95;;;135.85;;
16308;SDS011;8263;48.880;9.276;2023-02-28T11:27:47;145.27;;;134.48;;
16308;SDS011;8263;48.880;9.276;2023-02-28T11:30:32;146.40;;;135.45;;
16308;SDS011;8263;48.880;9.276;2023-02-28T11:32:59;144.90;;;134.10;;
16308;SDS011;8263;48.880;9.276;2023-02-28T11:35:28;145.88;;;134.82;;
16308;SDS011;8263;48.880;9.276;2023-02-28T11:37:55;145.18;;;134.43;;
16308;SDS011;8263;48.880;9.276;2023-02-28T11:40:25;147.25;;;136.05;;
16308;SDS011;8263;48.880;9.276;2023-02-28T11:42:57;144.00;;;133.30;;
16308;SDS011;8263;48.880;9.276;2023-02-28T11:45:29;143.00;;;132.43;;
16308;SDS011;8263;48.880;9.276;2023-02-28T11:48:01;143.98;;;133.27;;
16308;SDS011;8263;48.880;9.276;2023-02-28T11:53:19;144.88;;;134.02;;
16308;SDS011;8263;48.880;9.276;2023-02-28T11:55:48;143.07;;;132.48;;
16308;SDS011;8263;48.880;9.276;2023-02-28T11:58:22;144.02;;;133.10;;
16308;SDS011;8263;48.880;9.276;2023-02-28T12:03:39;143.25;;;132.60;;
16308;SDS011;8263;48.880;9.276;2023-02-28T12:06:15;142.52;;;131.93;;
16308;SDS011;8263;48.880;9.276;2023-02-28T12:08:49;142.98;;;132.48;;
16308;SDS011;8263;48.880;9.276;2023-02-28T12:11:19;143.43;;;132.32;;
16308;SDS011;8263;48.880;9.276;2023-02-28T12:13:53;142.23;;;131.73;;
16308;SDS011;8263;48.880;9.276;2023-02-28T12:16:29;143.85;;;133.13;;
16308;SDS011;8263;48.880;9.276;2023-02-28T12:19:03;141.38;;;130.95;;
16308;SDS011;8263;48.880;9.276;2023-02-28T12:21:36;141.30;;;130.88;;
16308;SDS011;8263;48.880;9.276;2023-02-28T12:24:10;143.80;;;132.90;;
16308;SDS011;8263;48.880;9.276;2023-02-28T12:26:41;141.38;;;130.98;;
16308;SDS011;8263;48.880;9.276;2023-02-28T12:29:10;142.25;;;131.70;;
16308;SDS011;8263;48.880;9.276;2023-02-28T12:31:40;140.20;;;129.80;;
16308;SDS011;8263;48.880;9.276;2023-02-28T12:34:09;139.55;;;129.45;;
16308;SDS011;8263;48.880;9.276;2023-02-28T12:36:36;140.40;;;130.00;;
16308;SDS011;8263;48.880;9.276;2023-02-28T12:39:04;141.95;;;131.52;;
16308;SDS011;8263;48.880;9.276;2023-02-28T12:41:36;139.65;;;129.45;;
16308;SDS011;8263;48.880;9.276;2023-02-28T12:44:06;139.60;;;129.40;;
16308;SDS011;8263;48.880;9.276;2023-02-28T12:46:35;140.88;;;130.48;;
16308;SDS011;8263;48.880;9.276;2023-02-28T12:49:04;139.55;;;129.23;;
16308;SDS011;8263;48.880;9.276;2023-02-28T12:51:32;138.23;;;128.13;;
16308;SDS011;8263;48.880;9.276;2023-02-28T12:54:04;139.32;;;128.90;;
16308;SDS011;8263;48.880;9.276;2023-02-28T12:56:35;139.23;;;129.13;;
16308;SDS011;8263;48.880;9.276;2023-02-28T12:59:10;138.48;;;128.43;;
16308;SDS011;8263;48.880;9.276;2023-02-28T13:01:42;139.90;;;129.70;;
16308;SDS011;8263;48.880;9.276;2023-02-28T13:06:58;138.98;;;128.80;;
16308;SDS011;8263;48.880;9.276;2023-02-28T13:09:26;139.75;;;129.45;;
16308;SDS011;8263;48.880;9.276;2023-02-28T13:11:56;136.10;;;126.30;;
16308;SDS011;8263;48.880;9.276;2023-02-28T13:14:24;135.55;;;125.65;;
16308;SDS011;8263;48.880;9.276;2023-02-28T13:16:56;138.23;;;127.68;;
16308;SDS011;8263;48.880;9.276;2023-02-28T13:19:23;137.27;;;127.25;;
16308;SDS011;8263;48.880;9.276;2023-02-28T13:21:52;137.57;;;127.53;;
16308;SDS011;8263;48.880;9.276;2023-02-28T13:27:19;136.63;;;126.70;;
16308;SDS011;8263;48.880;9.276;2023-02-28T13:29:49;135.90;;;126.20;;
16308;SDS011;8263;48.880;9.276;2023-02-28T13:35:13;138.43;;;128.23;;
16308;SDS011;8263;48.880;9.276;2023-02-28T13:37:43;137.75;;;127.55;;
16308;SDS011;8263;48.880;9.276;2023-02-28T13:40:29;136.93;;;127.03;;
16308;SDS011;8263;48.880;9.276;2023-02-28T13:43:03;135.90;;;126.20;;
16308;SDS011;8263;48.880;9.276;2023-02-28T13:45:30;135.20;;;125.47;;
16308;SDS011;8263;48.880;9.276;2023-02-28T13:48:03;137.25;;;127.07;;
16308;SDS011;8263;48.880;9.276;2023-02-28T13:50:33;134.73;;;124.90;;
16308;SDS011;8263;48.880;9.276;2023-02-28T13:55:44;135.60;;;125.85;;
16308;SDS011;8263;48.880;9.276;2023-02-28T13:58:23;136.10;;;126.07;;
16308;SDS011;8263;48.880;9.276;2023-02-28T14:00:58;136.35;;;126.47;;
16308;SDS011;8263;48.880;9.276;2023-02-28T14:03:31;136.02;;;126.22;;
16308;SDS011;8263;48.880;9.276;2023-02-28T14:08:52;136.63;;;126.78;;
16308;SDS011;8263;48.880;9.276;2023-02-28T14:11:27;132.48;;;123.03;;
16308;SDS011;8263;48.880;9.276;2023-02-28T14:13:55;133.07;;;123.45;;
16308;SDS011;8263;48.880;9.276;2023-02-28T14:16:22;135.27;;;125.55;;
16308;SDS011;8263;48.880;9.276;2023-02-28T14:18:51;134.73;;;125.00;;
16308;SDS011;8263;48.880;9.276;2023-02-28T14:21:22;134.10;;;124.50;;
16308;SDS011;8263;48.880;9.276;2023-02-28T14:26:54;136.65;;;126.72;;
16308;SDS011;8263;48.880;9.276;2023-02-28T14:29:30;133.63;;;123.85;;
16308;SDS011;8263;48.880;9.276;2023-02-28T14:32:01;136.55;;;126.65;;
16308;SDS011;8263;48.880;9.276;2023-02-28T14:34:32;134.35;;;124.65;;
16308;SDS011;8263;48.880;9.276;2023-02-28T14:37:01;131.68;;;122.28;;
16308;SDS011;8263;48.880;9.276;2023-02-28T14:39:28;135.20;;;125.45;;
16308;SDS011;8263;48.880;9.276;2023-02-28T14:41:56;135.15;;;125.15;;
16308;SDS011;8263;48.880;9.276;2023-02-28T14:44:24;135.13;;;125.43;;
16308;SDS011;8263;48.880;9.276;2023-02-28T14:46:53;133.35;;;123.65;;
16308;SDS011;8263;48.880;9.276;2023-02-28T14:49:20;132.07;;;122.65;;
16308;SDS011;8263;48.880;9.276;2023-02-28T14:51:48;135.55;;;125.60;;
16308;SDS011;8263;48.880;9.276;2023-02-28T14:54:16;132.80;;;123.30;;